sensor_id;sensor_type;location;lat;lon;timestamp;pressure;altitude;pressure_sealevel;temperature;humidity
78198;BME280;67472;51.554;7.812;2023-12-20T00:00:29;100770.25;;;8.20;100.00
78198;BME280;67472;51.554;7.812;2023-12-20T00:03:15;100774.97;;;8.27;100.00
78198;BME280;67472;51.554;7.812;2023-12-20T00:06:02;100770.25;;;8.32;100.00
78198;BME280;67472;51.554;7.812;2023-12-20T00:08:49;100769.81;;;8.26;100.00
78198;BME280;67472;51.554;7.812;2023-12-20T00:11:36;100781.09;;;8.28;100.00
78198;BME280;67472;51.554;7.812;2023-12-20T00:14:24;100784.34;;;8.31;100.00
78198;BME280;67472;51.554;7.812;2023-12-20T00:17:10;100776.44;;;8.19;100.00
78198;BME280;67472;51.554;7.812;2023-12-20T00:19:57;100773.09;;;8.17;100.00
78198;BME280;67472;51.554;7.812;2023-12-20T00:22:43;100768.56;;;8.19;100.00
78198;BME280;67472;51.554;7.812;2023-12-20T00:25:30;100771.09;;;8.20;100.00
78198;BME280;67472;51.554;7.812;2023-12-20T00:28:16;100763.00;;;8.11;100.00
78198;BME280;67472;51.554;7.812;2023-12-20T00:31:04;100764.34;;;8.16;100.00
78198;BME280;67472;51.554;7.812;2023-12-20T00:33:52;100764.91;;;8.09;100.00
78198;BME280;67472;51.554;7.812;2023-12-20T00:36:39;100779.13;;;8.06;100.00
78198;BME280;67472;51.554;7.812;2023-12-20T00:39:26;100777.34;;;7.94;100.00
78198;BME280;67472;51.554;7.812;2023-12-20T00:42:12;100769.16;;;7.86;100.00
78198;BME280;67472;51.554;7.812;2023-12-20T00:44:59;100778.50;;;7.90;100.00
78198;BME280;67472;51.554;7.812;2023-12-20T00:47:47;100778.13;;;7.83;100.00
78198;BME280;67472;51.554;7.812;2023-12-20T00:50:34;100782.63;;;7.81;100.00
78198;BME280;67472;51.554;7.812;2023-12-20T00:53:21;100789.56;;;7.82;100.00
78198;BME280;67472;51.554;7.812;2023-12-20T00:56:07;100792.75;;;7.75;100.00
78198;BME280;67472;51.554;7.812;2023-12-20T00:58:53;100787.56;;;7.73;100.00
78198;BME280;67472;51.554;7.812;2023-12-20T01:01:39;100791.91;;;7.74;100.00
78198;BME280;67472;51.554;7.812;2023-12-20T01:04:30;100792.19;;;7.70;100.00
78198;BME280;67472;51.554;7.812;2023-12-20T01:07:16;100791.56;;;7.79;100.00
78198;BME280;67472;51.554;7.812;2023-12-20T01:10:03;100792.31;;;7.68;100.00
78198;BME280;67472;51.554;7.812;2023-12-20T01:12:49;100781.16;;;7.65;100.00
78198;BME280;67472;51.554;7.812;2023-12-20T01:15:35;100783.16;;;7.61;100.00
78198;BME280;67472;51.554;7.812;2023-12-20T01:18:21;100787.78;;;7.58;100.00
78198;BME280;67472;51.554;7.812;2023-12-20T01:21:10;100786.50;;;7.63;100.00
78198;BME280;67472;51.554;7.812;2023-12-20T01:23:57;100799.56;;;7.65;100.00
78198;BME280;67472;51.554;7.812;2023-12-20T01:26:44;100801.13;;;7.67;100.00
78198;BME280;67472;51.554;7.812;2023-12-20T01:29:32;100790.63;;;7.67;100.00
78198;BME280;67472;51.554;7.812;2023-12-20T01:32:18;100799.66;;;7.63;100.00
78198;BME280;67472;51.554;7.812;2023-12-20T01:35:05;100801.03;;;7.56;100.00
78198;BME280;67472;51.554;7.812;2023-12-20T01:37:53;100797.47;;;7.57;100.00
78198;BME280;67472;51.554;7.812;2023-12-20T01:40:41;100798.63;;;7.53;100.00
78198;BME280;67472;51.554;7.812;2023-12-20T01:43:29;100799.66;;;7.51;100.00
78198;BME280;67472;51.554;7.812;2023-12-20T01:46:17;100808.25;;;7.40;100.00
78198;BME280;67472;51.554;7.812;2023-12-20T01:49:06;100795.56;;;7.34;100.00
78198;BME280;67472;51.554;7.812;2023-12-20T01:51:54;100796.59;;;7.31;100.00
78198;BME280;67472;51.554;7.812;2023-12-20T01:54:42;100785.88;;;7.34;100.00
78198;BME280;67472;51.554;7.812;2023-12-20T01:57:30;100785.38;;;7.42;100.00
78198;BME280;67472;51.554;7.812;2023-12-20T02:00:17;100776.00;;;7.38;100.00
78198;BME280;67472;51.554;7.812;2023-12-20T02:03:08;100772.53;;;7.37;100.00
78198;BME280;67472;51.554;7.812;2023-12-20T02:05:54;100771.47;;;7.40;100.00
78198;BME280;67472;51.554;7.812;2023-12-20T02:08:40;100760.00;;;7.28;100.00
78198;BME280;67472;51.554;7.812;2023-12-20T02:11:29;100754.16;;;7.25;100.00
78198;BME280;67472;51.554;7.812;2023-12-20T02:14:16;100750.56;;;7.26;100.00
78198;BME280;67472;51.554;7.812;2023-12-20T02:17:04;100729.03;;;7.21;100.00
78198;BME280;67472;51.554;7.812;2023-12-20T02:19:54;100726.06;;;7.13;100.00
78198;BME280;67472;51.554;7.812;2023-12-20T02:22:42;100719.03;;;7.13;100.00
78198;BME280;67472;51.554;7.812;2023-12-20T02:25:29;100707.38;;;7.05;100.00
78198;BME280;67472;51.554;7.812;2023-12-20T02:28:16;100704.84;;;7.03;100.00
78198;BME280;67472;51.554;7.812;2023-12-20T02:31:03;100700.31;;;7.05;100.00
78198;BME280;67472;51.554;7.812;2023-12-20T02:33:50;100704.00;;;7.03;100.00
78198;BME280;67472;51.554;7.812;2023-12-20T02:36:36;100689.63;;;6.96;100.00
78198;BME280;67472;51.554;7.812;2023-12-20T02:39:26;100699.59;;;6.91;100.00
78198;BME280;67472;51.554;7.812;2023-12-20T02:42:13;100698.53;;;6.93;100.00
78198;BME280;67472;51.554;7.812;2023-12-20T02:44:59;100696.41;;;6.86;100.00
78198;BME280;67472;51.554;7.812;2023-12-20T02:47:46;100700.72;;;6.87;100.00
78198;BME280;67472;51.554;7.812;2023-12-20T02:50:34;100704.53;;;6.95;100.00
78198;BME280;67472;51.554;7.812;2023-12-20T02:53:21;100690.78;;;7.04;100.00
78198;BME280;67472;51.554;7.812;2023-12-20T02:56:09;100675.31;;;7.00;100.00
78198;BME280;67472;51.554;7.812;2023-12-20T02:58:56;100671.44;;;7.05;100.00
78198;BME280;67472;51.554;7.812;2023-12-20T03:01:44;100673.25;;;7.05;100.00
78198;BME280;67472;51.554;7.812;2023-12-20T03:04:31;100667.13;;;7.04;100.00
78198;BME280;67472;51.554;7.812;2023-12-20T03:07:18;100665.97;;;7.08;100.00
78198;BME280;67472;51.554;7.812;2023-12-20T03:10:05;100661.25;;;7.01;100.00
78198;BME280;67472;51.554;7.812;2023-12-20T03:12:53;100666.09;;;7.07;100.00
78198;BME280;67472;51.554;7.812;2023-12-20T03:15:40;100675.84;;;7.17;100.00
78198;BME280;67472;51.554;7.812;2023-12-20T03:18:26;100662.41;;;7.09;100.00
78198;BME280;67472;51.554;7.812;2023-12-20T03:21:14;100656.94;;;7.12;100.00
78198;BME280;67472;51.554;7.812;2023-12-20T03:24:00;100656.63;;;7.04;100.00
78198;BME280;67472;51.554;7.812;2023-12-20T03:26:46;100653.88;;;7.06;100.00
78198;BME280;67472;51.554;7.812;2023-12-20T03:29:33;100650.75;;;7.01;100.00
78198;BME280;67472;51.554;7.812;2023-12-20T03:32:20;100651.19;;;7.07;100.00
78198;BME280;67472;51.554;7.812;2023-12-20T03:35:09;100646.66;;;7.09;100.00
78198;BME280;67472;51.554;7.812;2023-12-20T03:37:56;100655.16;;;7.00;100.00
78198;BME280;67472;51.554;7.812;2023-12-20T03:40:44;100651.25;;;7.06;100.00
78198;BME280;67472;51.554;7.812;2023-12-20T03:43:31;100647.41;;;6.99;100.00
78198;BME280;67472;51.554;7.812;2023-12-20T03:46:19;100645.50;;;7.01;100.00
78198;BME280;67472;51.554;7.812;2023-12-20T03:49:05;100643.19;;;6.96;100.00
78198;BME280;67472;51.554;7.812;2023-12-20T03:51:52;100645.28;;;6.91;100.00
78198;BME280;67472;51.554;7.812;2023-12-20T03:54:38;100651.50;;;6.90;100.00
78198;BME280;67472;51.554;7.812;2023-12-20T03:57:24;100642.34;;;6.83;100.00
78198;BME280;67472;51.554;7.812;2023-12-20T04:00:11;100643.06;;;6.98;100.00
78198;BME280;67472;51.554;7.812;2023-12-20T04:02:59;100641.28;;;6.86;100.00
78198;BME280;67472;51.554;7.812;2023-12-20T04:05:45;100635.41;;;6.69;100.00
78198;BME280;67472;51.554;7.812;2023-12-20T04:08:31;100642.25;;;6.85;100.00
78198;BME280;67472;51.554;7.812;2023-12-20T04:11:17;100629.31;;;6.81;100.00
78198;BME280;67472;51.554;7.812;2023-12-20T04:14:03;100621.53;;;6.80;100.00
78198;BME280;67472;51.554;7.812;2023-12-20T04:16:50;100621.22;;;6.72;100.00
78198;BME280;67472;51.554;7.812;2023-12-20T04:19:38;100617.66;;;6.73;100.00
78198;BME280;67472;51.554;7.812;2023-12-20T04:22:25;100615.56;;;6.78;100.00
78198;BME280;67472;51.554;7.812;2023-12-20T04:25:11;100627.19;;;6.74;100.00
78198;BME280;67472;51.554;7.812;2023-12-20T04:27:58;100609.44;;;6.65;100.00
78198;BME280;67472;51.554;7.812;2023-12-20T04:30:45;100605.16;;;6.64;100.00
78198;BME280;67472;51.554;7.812;2023-12-20T04:33:31;100609.66;;;6.62;100.00
78198;BME280;67472;51.554;7.812;2023-12-20T04:36:19;100601.38;;;6.68;100.00
78198;BME280;67472;51.554;7.812;2023-12-20T04:39:08;100604.59;;;6.59;100.00
78198;BME280;67472;51.554;7.812;2023-12-20T04:41:55;100613.75;;;6.66;100.00
78198;BME280;67472;51.554;7.812;2023-12-20T04:44:41;100613.56;;;6.69;100.00
78198;BME280;67472;51.554;7.812;2023-12-20T04:47:28;100611.34;;;6.63;100.00
78198;BME280;67472;51.554;7.812;2023-12-20T04:50:15;100604.34;;;6.76;100.00
78198;BME280;67472;51.554;7.812;2023-12-20T04:53:05;100612.91;;;6.65;100.00
78198;BME280;67472;51.554;7.812;2023-12-20T04:55:52;100612.72;;;6.68;100.00
78198;BME280;67472;51.554;7.812;2023-12-20T04:58:38;100601.56;;;6.65;100.00
78198;BME280;67472;51.554;7.812;2023-12-20T05:01:24;100605.66;;;6.56;100.00
78198;BME280;67472;51.554;7.812;2023-12-20T05:04:11;100629.69;;;6.50;100.00
78198;BME280;67472;51.554;7.812;2023-12-20T05:07:00;100623.94;;;6.58;100.00
78198;BME280;67472;51.554;7.812;2023-12-20T05:09:47;100617.31;;;6.65;100.00
78198;BME280;67472;51.554;7.812;2023-12-20T05:12:34;100625.59;;;6.59;100.00
78198;BME280;67472;51.554;7.812;2023-12-20T05:15:20;100619.00;;;6.66;100.00
78198;BME280;67472;51.554;7.812;2023-12-20T05:18:09;100621.63;;;6.66;100.00
78198;BME280;67472;51.554;7.812;2023-12-20T05:20:56;100629.44;;;6.67;100.00
78198;BME280;67472;51.554;7.812;2023-12-20T05:23:43;100642.84;;;6.63;100.00
78198;BME280;67472;51.554;7.812;2023-12-20T05:26:31;100626.78;;;6.55;100.00
78198;BME280;67472;51.554;7.812;2023-12-20T05:29:18;100616.16;;;6.56;100.00
78198;BME280;67472;51.554;7.812;2023-12-20T05:32:05;100625.59;;;6.59;100.00
78198;BME280;67472;51.554;7.812;2023-12-20T05:34:51;100626.16;;;6.64;100.00
78198;BME280;67472;51.554;7.812;2023-12-20T05:37:38;100631.81;;;6.70;100.00
78198;BME280;67472;51.554;7.812;2023-12-20T05:40:25;100617.44;;;6.63;100.00
78198;BME280;67472;51.554;7.812;2023-12-20T05:43:14;100620.78;;;6.65;100.00
78198;BME280;67472;51.554;7.812;2023-12-20T05:45:59;100621.84;;;6.63;100.00
78198;BME280;67472;51.554;7.812;2023-12-20T05:48:45;100606.63;;;6.55;100.00
78198;BME280;67472;51.554;7.812;2023-12-20T05:51:32;100599.25;;;6.48;100.00
78198;BME280;67472;51.554;7.812;2023-12-20T05:54:18;100609.53;;;6.51;100.00
78198;BME280;67472;51.554;7.812;2023-12-20T05:57:05;100603.34;;;6.52;100.00
78198;BME280;67472;51.554;7.812;2023-12-20T05:59:52;100614.38;;;6.57;100.00
78198;BME280;67472;51.554;7.812;2023-12-20T06:02:39;100618.25;;;6.51;100.00
78198;BME280;67472;51.554;7.812;2023-12-20T06:05:26;100614.28;;;6.58;100.00
78198;BME280;67472;51.554;7.812;2023-12-20T06:08:12;100626.56;;;6.58;100.00
78198;BME280;67472;51.554;7.812;2023-12-20T06:10:59;100616.59;;;6.63;100.00
78198;BME280;67472;51.554;7.812;2023-12-20T06:13:45;100610.91;;;6.56;100.00
78198;BME280;67472;51.554;7.812;2023-12-20T06:16:32;100621.31;;;6.58;100.00
78198;BME280;67472;51.554;7.812;2023-12-20T06:19:19;100621.97;;;6.61;100.00
78198;BME280;67472;51.554;7.812;2023-12-20T06:22:05;100613.31;;;6.59;100.00
78198;BME280;67472;51.554;7.812;2023-12-20T06:24:52;100615.75;;;6.62;100.00
78198;BME280;67472;51.554;7.812;2023-12-20T06:27:41;100605.81;;;6.67;100.00
78198;BME280;67472;51.554;7.812;2023-12-20T06:30:27;100607.78;;;6.64;100.00
78198;BME280;67472;51.554;7.812;2023-12-20T06:33:15;100613.44;;;6.70;100.00
78198;BME280;67472;51.554;7.812;2023-12-20T06:36:03;100615.56;;;6.78;100.00
78198;BME280;67472;51.554;7.812;2023-12-20T06:38:49;100609.56;;;6.63;100.00
78198;BME280;67472;51.554;7.812;2023-12-20T06:41:36;100604.84;;;6.68;100.00
78198;BME280;67472;51.554;7.812;2023-12-20T06:44:22;100605.47;;;6.72;100.00
78198;BME280;67472;51.554;7.812;2023-12-20T06:47:09;100597.94;;;6.67;100.00
78198;BME280;67472;51.554;7.812;2023-12-20T06:49:57;100597.59;;;6.72;100.00
78198;BME280;67472;51.554;7.812;2023-12-20T06:52:44;100594.25;;;6.70;100.00
78198;BME280;67472;51.554;7.812;2023-12-20T06:55:30;100595.06;;;6.70;100.00
78198;BME280;67472;51.554;7.812;2023-12-20T06:58:17;100604.97;;;6.67;100.00
78198;BME280;67472;51.554;7.812;2023-12-20T07:01:03;100604.00;;;6.68;100.00
78198;BME280;67472;51.554;7.812;2023-12-20T07:03:49;100600.31;;;6.70;100.00
78198;BME280;67472;51.554;7.812;2023-12-20T07:06:37;100602.84;;;6.72;100.00
78198;BME280;67472;51.554;7.812;2023-12-20T07:09:23;100605.69;;;6.69;100.00
78198;BME280;67472;51.554;7.812;2023-12-20T07:12:10;100608.50;;;6.66;100.00
78198;BME280;67472;51.554;7.812;2023-12-20T07:14:56;100601.69;;;6.63;100.00
78198;BME280;67472;51.554;7.812;2023-12-20T07:17:43;100606.19;;;6.74;100.00
78198;BME280;67472;51.554;7.812;2023-12-20T07:20:29;100605.91;;;6.78;100.00
78198;BME280;67472;51.554;7.812;2023-12-20T07:23:17;100601.28;;;6.69;100.00
78198;BME280;67472;51.554;7.812;2023-12-20T07:26:04;100602.34;;;6.67;100.00
78198;BME280;67472;51.554;7.812;2023-12-20T07:28:51;100608.19;;;6.70;100.00
78198;BME280;67472;51.554;7.812;2023-12-20T07:31:37;100615.53;;;6.65;100.00
78198;BME280;67472;51.554;7.812;2023-12-20T07:34:23;100609.78;;;6.73;100.00
78198;BME280;67472;51.554;7.812;2023-12-20T07:37:10;100614.00;;;6.75;100.00
78198;BME280;67472;51.554;7.812;2023-12-20T07:39:58;100618.69;;;6.70;100.00
78198;BME280;67472;51.554;7.812;2023-12-20T07:42:45;100614.19;;;6.72;100.00
78198;BME280;67472;51.554;7.812;2023-12-20T07:45:32;100616.63;;;6.75;100.00
78198;BME280;67472;51.554;7.812;2023-12-20T07:48:22;100617.13;;;6.80;100.00
78198;BME280;67472;51.554;7.812;2023-12-20T07:51:10;100619.75;;;6.80;100.00
78198;BME280;67472;51.554;7.812;2023-12-20T07:53:56;100610.19;;;6.79;100.00
78198;BME280;67472;51.554;7.812;2023-12-20T07:56:46;100594.84;;;6.73;100.00
78198;BME280;67472;51.554;7.812;2023-12-20T07:59:33;100596.56;;;6.74;100.00
78198;BME280;67472;51.554;7.812;2023-12-20T08:02:20;100608.53;;;6.78;100.00
78198;BME280;67472;51.554;7.812;2023-12-20T08:05:07;100601.59;;;6.77;100.00
78198;BME280;67472;51.554;7.812;2023-12-20T08:07:54;100595.50;;;6.77;100.00
78198;BME280;67472;51.554;7.812;2023-12-20T08:10:43;100591.53;;;6.84;100.00
78198;BME280;67472;51.554;7.812;2023-12-20T08:13:33;100583.00;;;6.80;100.00
78198;BME280;67472;51.554;7.812;2023-12-20T08:16:22;100590.25;;;6.90;100.00
78198;BME280;67472;51.554;7.812;2023-12-20T08:19:09;100576.91;;;6.80;100.00
78198;BME280;67472;51.554;7.812;2023-12-20T08:21:55;100583.66;;;6.84;100.00
78198;BME280;67472;51.554;7.812;2023-12-20T08:24:41;100578.19;;;6.87;100.00
78198;BME280;67472;51.554;7.812;2023-12-20T08:27:28;100582.59;;;6.87;100.00
78198;BME280;67472;51.554;7.812;2023-12-20T08:30:17;100580.91;;;6.86;100.00
78198;BME280;67472;51.554;7.812;2023-12-20T08:33:07;100575.56;;;6.87;100.00
78198;BME280;67472;51.554;7.812;2023-12-20T08:35:58;100577.84;;;7.04;100.00
78198;BME280;67472;51.554;7.812;2023-12-20T08:38:45;100572.31;;;6.96;100.00
78198;BME280;67472;51.554;7.812;2023-12-20T08:41:32;100574.38;;;7.04;100.00
78198;BME280;67472;51.554;7.812;2023-12-20T08:44:18;100582.47;;;7.01;100.00
78198;BME280;67472;51.554;7.812;2023-12-20T08:47:08;100568.69;;;7.10;100.00
78198;BME280;67472;51.554;7.812;2023-12-20T08:49:59;100558.28;;;7.08;100.00
78198;BME280;67472;51.554;7.812;2023-12-20T08:52:46;100565.13;;;7.11;100.00
78198;BME280;67472;51.554;7.812;2023-12-20T08:55:33;100555.06;;;7.05;100.00
78198;BME280;67472;51.554;7.812;2023-12-20T08:58:21;100563.75;;;7.05;100.00
78198;BME280;67472;51.554;7.812;2023-12-20T09:01:07;100567.13;;;7.07;100.00
78198;BME280;67472;51.554;7.812;2023-12-20T09:03:55;100573.63;;;7.14;100.00
78198;BME280;67472;51.554;7.812;2023-12-20T09:06:41;100561.88;;;7.07;100.00
78198;BME280;67472;51.554;7.812;2023-12-20T09:09:28;100555.78;;;7.07;100.00
78198;BME280;67472;51.554;7.812;2023-12-20T09:12:18;100543.16;;;7.12;100.00
78198;BME280;67472;51.554;7.812;2023-12-20T09:15:08;100550.94;;;7.13;100.00
78198;BME280;67472;51.554;7.812;2023-12-20T09:17:54;100549.25;;;7.12;100.00
78198;BME280;67472;51.554;7.812;2023-12-20T09:20:41;100551.13;;;7.23;100.00
78198;BME280;67472;51.554;7.812;2023-12-20T09:23:28;100544.34;;;7.08;100.00
78198;BME280;67472;51.554;7.812;2023-12-20T09:26:14;100545.47;;;7.16;100.00
78198;BME280;67472;51.554;7.812;2023-12-20T09:29:02;100539.59;;;7.13;100.00
78198;BME280;67472;51.554;7.812;2023-12-20T09:31:49;100523.84;;;7.13;100.00
78198;BME280;67472;51.554;7.812;2023-12-20T09:34:39;100535.91;;;7.15;100.00
78198;BME280;67472;51.554;7.812;2023-12-20T09:37:28;100522.22;;;7.23;100.00
78198;BME280;67472;51.554;7.812;2023-12-20T09:40:18;100529.28;;;7.22;100.00
78198;BME280;67472;51.554;7.812;2023-12-20T09:43:09;100527.16;;;7.27;100.00
78198;BME280;67472;51.554;7.812;2023-12-20T09:46:00;100536.25;;;7.34;100.00
78198;BME280;67472;51.554;7.812;2023-12-20T09:48:50;100525.44;;;7.39;100.00
78198;BME280;67472;51.554;7.812;2023-12-20T09:51:37;100524.47;;;7.40;100.00
78198;BME280;67472;51.554;7.812;2023-12-20T09:54:27;100504.25;;;7.29;100.00
78198;BME280;67472;51.554;7.812;2023-12-20T09:57:16;100516.22;;;7.33;100.00
78198;BME280;67472;51.554;7.812;2023-12-20T10:00:03;100509.28;;;7.32;100.00
78198;BME280;67472;51.554;7.812;2023-12-20T10:02:59;100509.47;;;7.42;100.00
78198;BME280;67472;51.554;7.812;2023-12-20T10:05:47;100512.25;;;7.52;100.00
78198;BME280;67472;51.554;7.812;2023-12-20T10:08:38;100508.06;;;7.49;100.00
78198;BME280;67472;51.554;7.812;2023-12-20T10:11:26;100508.19;;;7.71;100.00
78198;BME280;67472;51.554;7.812;2023-12-20T10:14:12;100496.31;;;7.66;100.00
78198;BME280;67472;51.554;7.812;2023-12-20T10:17:02;100498.88;;;7.78;100.00
78198;BME280;67472;51.554;7.812;2023-12-20T10:19:48;100493.03;;;7.75;100.00
78198;BME280;67472;51.554;7.812;2023-12-20T10:22:37;100490.44;;;7.86;100.00
78198;BME280;67472;51.554;7.812;2023-12-20T10:25:24;100484.38;;;7.96;100.00
78198;BME280;67472;51.554;7.812;2023-12-20T10:28:14;100476.59;;;7.95;100.00
78198;BME280;67472;51.554;7.812;2023-12-20T10:31:06;100473.63;;;8.00;100.00
78198;BME280;67472;51.554;7.812;2023-12-20T10:33:55;100475.25;;;7.89;100.00
78198;BME280;67472;51.554;7.812;2023-12-20T10:36:42;100457.19;;;7.85;100.00
78198;BME280;67472;51.554;7.812;2023-12-20T10:39:28;100454.84;;;7.69;100.00
78198;BME280;67472;51.554;7.812;2023-12-20T10:42:15;100455.69;;;7.70;100.00
78198;BME280;67472;51.554;7.812;2023-12-20T10:45:05;100457.72;;;7.66;100.00
78198;BME280;67472;51.554;7.812;2023-12-20T10:47:51;100468.72;;;7.60;100.00
78198;BME280;67472;51.554;7.812;2023-12-20T10:50:39;100465.47;;;7.57;100.00
78198;BME280;67472;51.554;7.812;2023-12-20T10:53:27;100472.28;;;7.59;100.00
78198;BME280;67472;51.554;7.812;2023-12-20T10:56:16;100459.00;;;7.61;100.00
78198;BME280;67472;51.554;7.812;2023-12-20T10:59:03;100473.44;;;7.55;100.00
78198;BME280;67472;51.554;7.812;2023-12-20T11:01:53;100477.41;;;7.61;100.00
78198;BME280;67472;51.554;7.812;2023-12-20T11:04:47;100475.53;;;7.63;100.00
78198;BME280;67472;51.554;7.812;2023-12-20T11:07:39;100467.03;;;7.59;100.00
78198;BME280;67472;51.554;7.812;2023-12-20T11:10:31;100468.09;;;7.57;100.00
78198;BME280;67472;51.554;7.812;2023-12-20T11:13:26;100464.88;;;7.64;100.00
78198;BME280;67472;51.554;7.812;2023-12-20T11:16:14;100478.81;;;7.54;100.00
78198;BME280;67472;51.554;7.812;2023-12-20T11:19:05;100470.19;;;7.52;100.00
78198;BME280;67472;51.554;7.812;2023-12-20T11:21:52;100480.00;;;7.50;100.00
78198;BME280;67472;51.554;7.812;2023-12-20T11:24:44;100470.81;;;7.55;100.00
78198;BME280;67472;51.554;7.812;2023-12-20T11:27:32;100479.75;;;7.53;100.00
78198;BME280;67472;51.554;7.812;2023-12-20T11:30:20;100470.09;;;7.53;100.00
78198;BME280;67472;51.554;7.812;2023-12-20T11:33:07;100489.56;;;7.51;100.00
78198;BME280;67472;51.554;7.812;2023-12-20T11:35:57;100475.69;;;7.49;100.00
78198;BME280;67472;51.554;7.812;2023-12-20T11:38:55;100483.06;;;7.67;100.00
78198;BME280;67472;51.554;7.812;2023-12-20T11:41:44;100469.59;;;7.72;100.00
78198;BME280;67472;51.554;7.812;2023-12-20T11:44:32;100465.44;;;7.80;100.00
78198;BME280;67472;51.554;7.812;2023-12-20T11:47:21;100456.81;;;7.78;100.00
78198;BME280;67472;51.554;7.812;2023-12-20T11:50:08;100449.03;;;7.77;100.00
78198;BME280;67472;51.554;7.812;2023-12-20T11:52:56;100448.19;;;7.76;100.00
78198;BME280;67472;51.554;7.812;2023-12-20T11:55:42;100439.41;;;7.88;100.00
78198;BME280;67472;51.554;7.812;2023-12-20T11:58:28;100440.47;;;7.86;100.00
78198;BME280;67472;51.554;7.812;2023-12-20T12:01:15;100439.97;;;7.81;100.00
78198;BME280;67472;51.554;7.812;2023-12-20T12:04:02;100444.66;;;7.88;100.00
78198;BME280;67472;51.554;7.812;2023-12-20T12:06:49;100423.84;;;7.85;100.00
78198;BME280;67472;51.554;7.812;2023-12-20T12:09:37;100430.19;;;7.83;100.00
78198;BME280;67472;51.554;7.812;2023-12-20T12:12:24;100444.06;;;7.96;100.00
78198;BME280;67472;51.554;7.812;2023-12-20T12:15:12;100439.41;;;7.88;100.00
78198;BME280;67472;51.554;7.812;2023-12-20T12:18:00;100448.22;;;7.87;100.00
78198;BME280;67472;51.554;7.812;2023-12-20T12:20:47;100442.25;;;7.85;100.00
78198;BME280;67472;51.554;7.812;2023-12-20T12:23:33;100450.66;;;7.67;100.00
78198;BME280;67472;51.554;7.812;2023-12-20T12:26:30;100446.03;;;7.70;100.00
78198;BME280;67472;51.554;7.812;2023-12-20T12:29:16;100444.84;;;7.74;100.00
78198;BME280;67472;51.554;7.812;2023-12-20T12:32:05;100431.50;;;7.77;100.00
78198;BME280;67472;51.554;7.812;2023-12-20T12:34:53;100425.78;;;7.83;100.00
78198;BME280;67472;51.554;7.812;2023-12-20T12:37:40;100422.63;;;7.78;100.00
78198;BME280;67472;51.554;7.812;2023-12-20T12:40:27;100426.22;;;7.77;100.00
78198;BME280;67472;51.554;7.812;2023-12-20T12:43:14;100427.53;;;7.72;100.00
78198;BME280;67472;51.554;7.812;2023-12-20T12:46:01;100423.81;;;7.74;100.00
78198;BME280;67472;51.554;7.812;2023-12-20T12:48:47;100429.19;;;7.73;100.00
78198;BME280;67472;51.554;7.812;2023-12-20T12:51:36;100420.97;;;7.77;100.00
78198;BME280;67472;51.554;7.812;2023-12-20T12:54:23;100423.44;;;7.68;100.00
78198;BME280;67472;51.554;7.812;2023-12-20T12:57:09;100420.19;;;7.64;100.00
78198;BME280;67472;51.554;7.812;2023-12-20T12:59:57;100409.94;;;7.72;100.00
78198;BME280;67472;51.554;7.812;2023-12-20T13:02:44;100419.28;;;7.76;100.00
78198;BME280;67472;51.554;7.812;2023-12-20T13:05:31;100422.41;;;7.81;100.00
78198;BME280;67472;51.554;7.812;2023-12-20T13:08:18;100400.19;;;7.85;100.00
78198;BME280;67472;51.554;7.812;2023-12-20T13:11:04;100399.97;;;7.88;100.00
78198;BME280;67472;51.554;7.812;2023-12-20T13:13:50;100399.56;;;7.82;100.00
78198;BME280;67472;51.554;7.812;2023-12-20T13:16:38;100399.34;;;7.96;100.00
78198;BME280;67472;51.554;7.812;2023-12-20T13:19:24;100381.41;;;7.90;100.00
78198;BME280;67472;51.554;7.812;2023-12-20T13:22:10;100371.28;;;7.96;100.00
78198;BME280;67472;51.554;7.812;2023-12-20T13:24:58;100364.84;;;8.01;100.00
78198;BME280;67472;51.554;7.812;2023-12-20T13:27:45;100367.94;;;7.94;100.00
78198;BME280;67472;51.554;7.812;2023-12-20T13:30:32;100352.25;;;7.93;100.00
78198;BME280;67472;51.554;7.812;2023-12-20T13:33:21;100339.72;;;7.96;100.00
78198;BME280;67472;51.554;7.812;2023-12-20T13:36:11;100344.03;;;7.97;100.00
78198;BME280;67472;51.554;7.812;2023-12-20T13:38:58;100349.06;;;8.01;100.00
78198;BME280;67472;51.554;7.812;2023-12-20T13:41:44;100338.78;;;7.97;100.00
78198;BME280;67472;51.554;7.812;2023-12-20T13:44:31;100336.25;;;7.96;100.00
78198;BME280;67472;51.554;7.812;2023-12-20T13:47:18;100334.22;;;8.00;100.00
78198;BME280;67472;51.554;7.812;2023-12-20T13:50:09;100327.19;;;8.00;100.00
78198;BME280;67472;51.554;7.812;2023-12-20T13:52:57;100333.38;;;7.99;100.00
78198;BME280;67472;51.554;7.812;2023-12-20T13:55:43;100326.56;;;7.96;100.00
78198;BME280;67472;51.554;7.812;2023-12-20T13:58:30;100331.13;;;7.94;100.00
78198;BME280;67472;51.554;7.812;2023-12-20T14:01:42;100328.25;;;7.97;100.00
78198;BME280;67472;51.554;7.812;2023-12-20T14:04:54;100334.94;;;7.90;100.00
78198;BME280;67472;51.554;7.812;2023-12-20T14:07:42;100339.72;;;7.96;100.00
78198;BME280;67472;51.554;7.812;2023-12-20T14:10:30;100352.03;;;7.85;100.00
78198;BME280;67472;51.554;7.812;2023-12-20T14:13:18;100354.53;;;7.86;100.00
78198;BME280;67472;51.554;7.812;2023-12-20T14:16:08;100349.00;;;7.78;100.00
78198;BME280;67472;51.554;7.812;2023-12-20T14:18:55;100360.59;;;7.65;100.00
78198;BME280;67472;51.554;7.812;2023-12-20T14:21:43;100366.84;;;7.75;100.00
78198;BME280;67472;51.554;7.812;2023-12-20T14:24:43;100372.31;;;7.72;100.00
78198;BME280;67472;51.554;7.812;2023-12-20T14:27:31;100352.09;;;7.72;100.00
78198;BME280;67472;51.554;7.812;2023-12-20T14:30:17;100364.78;;;7.67;100.00
78198;BME280;67472;51.554;7.812;2023-12-20T14:33:04;100360.84;;;7.73;100.00
78198;BME280;67472;51.554;7.812;2023-12-20T14:35:53;100362.16;;;7.78;100.00